Report Vehicle Measure = Sum of the Total Weight (TotW) Sum of the Time Weight (TiW)
Inspection Date Number State Plate Number Plate State Type Severity Weight
(SW)
Time Weight
(TiW)
Total Weight
(TotW)
9/22/2019 MOW131002741 MO D357HY TN Truck Tractor 4 3 12
393.205(a) Wheel/rim cracked or broken 2  
393.9 Inoperable Required Lamp 2  
Sum of Violation Weight => Inspection Severity Weight (SW) 4  
9/20/2019 KYCV42710024 KY C972HY TN Truck Tractor 0 3 0
9/20/2019 OH0315000851 OH C951HY TN Truck Tractor 0 3 0
9/18/2019 MD1825002830 MD C717HY TN Truck Tractor 0 3 0
9/18/2019 MOW230000191 MO D350HY TN Truck Tractor 7 3 21
393.95(a) No/discharged/unsecured fire extinguisher 2  
393.60(c) Damaged or discolored windshield 1  
393.45B2UV Brake Hose or Tubing Chafing and/or Kinking Under Vehicle 4  
Sum of Violation Weight => Inspection Severity Weight (SW) 7  
9/17/2019 WV3826003505 WV C645HY TN Truck Tractor 6 3 18
393.45PC Brake Tubing and Hose Adequacy - Connections to Power Unit (OOS) 4 + 2 (OOS)  
9/14/2019 LALANH001342 LA J9907HY TN Truck Tractor 0 3 0
9/12/2019 TNBBFF035906 TN C680HY TN Truck Tractor 0 3 0
9/11/2019 OH9450300133 OH C956HY TN Truck Tractor 0 3 0
9/11/2019 NC0006123369 NC C783HY TN Truck Tractor 0 3 0
9/11/2019 MOW188001605 MO C701HY TN Truck Tractor 0 3 0
9/9/2019 AR467E006957 AR D351HY TN Truck Tractor 11 3 33
393.95(a) No/discharged/unsecured fire extinguisher 2  
393.207(a) Axle positioning parts defective/missing (OOS) 7 + 2 (OOS)  
Sum of Violation Weight => Inspection Severity Weight (SW) 11  
9/7/2019 KY0M80900184 KY J9575HY TN Truck Tractor 0 3 0
9/3/2019 MD0235002852 MD G8618HY TN Truck Tractor 0 3 0
9/3/2019 NC0006120986 NC C813HY TN Truck Tractor 0 3 0
9/2/2019 TX5JKD0VKN3P TX C661HY TN Truck Tractor 0 3 0
8/27/2019 MD2156003046 MD D291HY TN Truck Tractor 0 3 0
8/27/2019 NC0006118455 NC C644HY TN Truck Tractor 0 3 0
8/27/2019 PAG512923901 PA 1021508T TN Truck Tractor 4 3 12
393.45DLUV Brake Connections with Leaks Under Vehicle 4  
8/22/2019 OH1482001205 OH F3641HY TN Truck Tractor 0 3 0
8/20/2019 TNEEAE012313 TN C666HY TN Truck Tractor 0 3 0
8/20/2019 MS0711005459 MS D179HY OK Truck Tractor 0 3 0
8/19/2019 KYCV44171204 KY D307HY TN Truck Tractor 0 3 0
8/17/2019 KYCV41410668 KY D342HY TN Truck Tractor 0 3 0
8/16/2019 MD2102002995 MD D139HY TN Truck Tractor 0 3 0
8/16/2019 PAA134922810 PA C650HY TN Truck Tractor 2 3 6
393.95(a) No/discharged/unsecured fire extinguisher 2  
8/14/2019 NC0006113712 NC J4292HY TN Truck Tractor 0 3 0
8/8/2019 TNTBSD001293 TN D283HY TN Truck Tractor 9 3 27
393.207(b) Adjustable axle locking pins missing or not engaged (OOS) 7 + 2 (OOS)  
8/8/2019 MOGT06000573 MO C923HY TN Truck Tractor 0 3 0
8/7/2019 MS0517004159 MS D111HY TN Truck Tractor 0 3 0
8/6/2019 MS0205004418 MS J2824HY TN Truck Tractor 6 3 18
393.9T Inoperable tail lamp 6  
8/3/2019 TX5IQB9DDUHE TX D213HY TN Straight Truck 0 3 0
7/31/2019 TNTEQM003611 TN C829HY TN Truck Tractor 6 3 18
393.9H Inoperable head lamps 6  
7/30/2019 TNBBFF035426 TN D138HY TN Truck Tractor 0 3 0
7/26/2019 MD2512002257 MD C677HY TN Truck Tractor 0 3 0
7/23/2019 MOW208002412 MO C664HY TN Truck Tractor 0 3 0
7/22/2019 ARE542005070 AR D064HY TN Truck Tractor 0 3 0
7/18/2019 MD0235002717 MD J2037HY TN Truck Tractor 0 3 0
7/18/2019 ARE542005064 AR D021HY TN Truck Tractor 9 3 27
393.9TS Inoperative turn signal (OOS) 6 + 2 (OOS)  
392.2WC Wheel (Mud) Flaps missing or defective 1  
Sum of Violation Weight => Inspection Severity Weight (SW) 9  
7/18/2019 LALACH006592 LA G0627HY TN Truck Tractor 0 3 0
7/17/2019 TNEEAE012268 TN C669HY TN Truck Tractor 0 3 0
7/17/2019 MOG1W4003482 MO C773HY TN Truck Tractor 0 3 0
7/17/2019 MS0220000813 MS D192HY TN Truck Tractor 0 3 0
7/11/2019 ALWBMC001439 AL K6100HY TN Truck Tractor 3 3 9
393.78 Windshield wipers inoperative/defective 1  
393.9 Inoperable Required Lamp 2  
Sum of Violation Weight => Inspection Severity Weight (SW) 3  
7/9/2019 MS0722000268 MS C672HY TN Truck Tractor 2 3 6
393.9 Inoperable Required Lamp 2  
7/8/2019 MD0169002225 MD D320HY TN Truck Tractor 0 3 0
7/8/2019 NC0006103665 NC D288HY TN Truck Tractor 6 3 18
393.9H Inoperable head lamps 6  
7/7/2019 MD2102002754 MD J4238HY TN Truck Tractor 10 3 30
393.75(a) Flat tire or fabric exposed (OOS) 8 + 2 (OOS)  
7/6/2019 AR469D009593 AR C932HY TN Truck Tractor 0 3 0
7/6/2019 OH0593002209 OH C766HY TN Truck Tractor 0 3 0
Sum of measure weights Sum of measure weights 0 0 0